Tiempo atmosférico en la estación meteorológica de Villanueva De Córdoba, Córdoba (740 m.)



Fecha
DESCASC
Temp. máxima en grados centígrados (hora)
DESCASC
Temp. mínima en grados centígrados (hora)
DESCASC
Temp. media en grados centígrados
DESCASC
Racha de viento máxima en m/sg (hora)
DESCASC
Velocidad máxima media en intervalos de 10 minutos(hora)
DESCASC
Precipitaciones diarias en mm
DESCASC
Precipitaciones de 00:00 a 06:00 en mm
DESCASC
Precipitaciones de 06:00 a 12:00 en mm
DESCASC
Precipitaciones de 12:00 a 18:00 en mm
DESCASC
Precipitaciones de 18:00 a 24:00 en mm
DESCASC
15-07-2018 28.9 (16:50) 11.6 (07:30) 20.3 11.11 (19:00) 5.28 (19:00) 0 0 0 0 0
14-07-2018 30.9 (15:50) 15 (07:40) 22.9 13.06 (16:20) 6.67 (16:20) 0 0 0 0 0
13-07-2018 30.6 (17:10) 14.1 (07:30) 22.4 12.22 (16:40) 4.44 (18:30) 0 0 0 0 0
12-07-2018 32.5 (17:30) 15.5 (00:00) 24 9.72 (18:40) 3.89 (19:00) 0 0 0 0 0
11-07-2018 31.9 (16:30) 16.3 (00:00) 24.1 10.28 (16:10) 5.28 (18:40) 0 0 0 0 0
10-07-2018 35.1 (16:20) 20.7 (00:00) 27.9 11.11 (16:30) 6.11 (19:00) 0 0 0 0 0
09-07-2018 35.5 (16:20) 18.9 (00:00) 27.2 8.33 (17:20) 4.17 (19:20) 0 0 0 0 0
08-07-2018 35.4 (17:50) 17.6 (07:30) 26.5 8.61 (14:30) 4.44 (19:20) 0 0 0 0 0
07-07-2018 34.4 (18:30) 17.6 (00:00) 26 8.89 (19:00) 3.33 (14:50) 0 0 0 0 0
06-07-2018 33.3 (18:00) 16.8 (00:00) 25 9.17 (20:00) 4.72 (20:00) 0 0 0 0 0
05-07-2018 29.7 (17:00) 13.8 (07:10) 21.8 9.72 (18:50) 4.44 (17:50) 0 0 0 0 0
04-07-2018 27.1 (16:20) 13.5 (07:30) 20.3 12.5 (14:40) 6.11 (14:20) 0 0 0 0 0
03-07-2018 32.4 (17:40) 15.3 (07:10) 23.9 8.06 (19:20) 4.44 (20:50) 0 0 0 0 0
02-07-2018 27.9 (18:30) 12.8 (07:20) 20.3 8.06 (19:00) 4.17 (19:10) 0 0 0 0 0
01-07-2018 26.2 (17:00) 13.3 (00:00) 19.8 13.06 (17:20) 5.28 (19:30) 0 0 0 0 0
30-06-2018 27.6 (17:00) 16.6 (06:50) 22.1 12.5 (17:10) 6.67 (15:10) 0 0 0 0 0
29-06-2018 30.6 (16:30) 14.5 (00:00) 22.6 8.89 (17:30) 4.17 (18:50) 0 0 0 0 0
28-06-2018 30.4 (17:50) 16.9 (00:00) 23.6 9.44 (18:10) 5.28 (19:20) 0 0 0 0 0
27-06-2018 32.2 (17:30) 16.2 (00:00) 24.2 10 (16:40) 4.44 (20:20) 0 0 0 0 0
26-06-2018 33.1 (18:10) 16.8 (00:00) 24.9 8.89 (17:10) 4.72 (16:50) 0 0 0 0 0
25-06-2018 33.9 (18:20) 16.6 (00:00) 25.3 8.06 (19:10) 4.44 (20:40) 0 0 0 0 0
24-06-2018 37.4 (16:50) 18.7 (00:00) 28.1 7.22 (16:20) 3.33 (18:50) 0 0 0 0 0
23-06-2018 36 (17:10) 16.5 (00:00) 26.3 6.67 (13:30) 3.61 (20:10) 0 0 0 0 0
22-06-2018 33.3 (18:10) 15.9 (07:20) 24.6 8.06 (16:30) 3.61 (02:30) 0 0 0 0 0
21-06-2018 32.3 (17:30) 16.9 (00:00) 24.6 7.78 (19:10) 3.33 (00:10) 0 0 0 0 0
20-06-2018 33.1 (19:20) 16.5 (00:00) 24.8 9.17 (16:20) 3.61 (23:59) 0 0 0 0 0
19-06-2018 32.1 (17:50) 17.1 (00:00) 24.6 8.06 (14:10) 4.17 (04:50) 0 0 0 0 0
18-06-2018 33.1 (17:30) 20.4 (00:00) 26.7 8.61 (14:10) 3.89 (15:00) 0 0 0 0 0
17-06-2018 33.4 (17:10) 17.5 (00:00) 25.5 6.39 (15:00) 3.33 (07:10) 0 0 0 0 0

Gráficas

Temp. máximas Temp. mínimas Temp. medias Precipitaciones Rachas de viento máximas Velocidades máximas media en intervalos de 10 minutos

Datos horarios

Fecha y hora oficial Temperatura (ºC) Velocidad del viento (km/h) Dirección del viento Racha (km/h) Dirección de racha Precipitación (mm) Presión (hPa) Tendencia (hPa) Humedad (%)
2018-07-16 23:00:00 22.8 8 Noroeste 14 Noroeste 0 933.4 0.3 28
2018-07-16 22:00:00 24.5 8 Noroeste 16 Noroeste 0 933.2 0.1 25
2018-07-16 21:00:00 27.7 8 Noroeste 19 Norte 0 933.2 -0.2 20
2018-07-16 20:00:00 28.6 10 Noroeste 21 Norte 0 933.1 -0.7 19
2018-07-16 19:00:00 29 6 Oeste 24 Noroeste 0 933.1 -1 20
2018-07-16 18:00:00 29.1 5 Norte 24 Norte 0 933.4 -1.3 21
2018-07-16 17:00:00 29 8 Norte 26 Norte 0 933.8 -1.3 21
2018-07-16 16:00:00 27.5 10 Noroeste 28 Oeste 0 934.1 -1.3 22
2018-07-16 15:00:00 26.8 6 Noroeste 24 Noroeste 0 934.7 -0.6 26
2018-07-16 14:00:00 25.1 9 Noroeste 24 Noroeste 0 935.1 -0.1 29
2018-07-16 13:00:00 23.8 8 Noroeste 26 Oeste 0 935.4 -0.1 38
2018-07-16 12:00:00 21.9 9 Norte 24 Noroeste 0 935.3 0.1 48
2018-07-16 11:00:00 20 10 Norte 21 Norte 0 935.2 0.5 60
2018-07-16 10:00:00 18 9 Noroeste 18 Noroeste 0 935.5 0.9 70
2018-07-16 09:00:00 15.6 8 Noroeste 14 Oeste 0 935.2 0.7 83
2018-07-16 08:00:00 13.9 8 Oeste 12 Oeste 0 934.7 0.2 88
2018-07-16 07:00:00 13.9 8 Noroeste 14 Noroeste 0 934.6 0 86
2018-07-16 06:00:00 14.5 8 Oeste 14 Noroeste 0 934.5 -0.3 81
2018-07-16 05:00:00 15.4 8 Noroeste 19 Noroeste 0 934.5 -0.5 76
2018-07-16 04:00:00 16.3 8 Noroeste 23 Noroeste 0 934.6 -0.3 71
2018-07-16 03:00:00 17 12 Noroeste 23 Noroeste 0 934.8 0.4 66
2018-07-16 02:00:00 17.4 11 Oeste 19 Oeste 0 935 1.1 60
2018-07-16 01:00:00 17.8 10 Oeste 22 Oeste 0 934.9 1.8 61
2018-07-16 00:00:00 19.3 10 Sudoeste 21 Sudoeste 0 934.4 1.9 57
2018-07-15 23:00:00 20.3 5 Sur 17 Noroeste 0 933.9 1.7 44
2018-07-15 22:00:00 21.5 7 Noroeste 27 Oeste 0 933.1 0.8 39
2018-07-15 21:00:00 24.7 18 Oeste 37 Oeste 0 932.5 0.1 27
2018-07-15 20:00:00 26 17 Oeste 33 Sudoeste 0 932.2 -0.3 28
2018-07-15 19:00:00 26.5 19 Sudoeste 40 Oeste 0 932.3 -0.6 27
2018-07-15 18:00:00 28.2 13 Sudoeste 33 Sur 0 932.4 -0.7 24
2018-07-15 17:00:00 28.7 13 Sur 36 Sudoeste 0 932.5 -1 24
2018-07-15 16:00:00 26.7 12 Sur 30 Sudoeste 0 932.9 -1 29
2018-07-15 15:00:00 26.6 11 Oeste 25 Oeste 0 933.1 -1.1 24
2018-07-15 14:00:00 26.2 9 Sur 31 Sudoeste 0 933.5 -0.8 23
2018-07-15 13:00:00 25 10 Sudoeste 21 Sudoeste 0 933.9 -0.5 33
2018-07-15 12:00:00 22.1 8 Sudoeste 17 Oeste 0 934.2 0 45
2018-07-15 11:00:00 20.1 4 Sudoeste 13 Sudoeste 0 934.3 0.2 57
2018-07-15 10:00:00 16.6 4 Sudoeste 12 Sur 0 934.4 0.7 72
2018-07-15 09:00:00 13.3 4 Sur 12 Sur 0 934.2 0.9 88
2018-07-15 08:00:00 11.7 6 Sur 14 Sur 0 934.1 0.5 89
2018-07-15 07:00:00 11.9 9 Sur 15 Sur 0 933.7 -0.3 85
2018-07-15 06:00:00 12.4 8 Sur 18 Sur 0 933.3 -0.4 78
2018-07-15 05:00:00 13.2 11 Sur 18 Sur 0 933.6 -0.5 69
2018-07-15 04:00:00 14.7 5 Sur 22 Sur 0 934 -0.4 60
2018-07-15 03:00:00 15.8 9 Sur 22 Sur 0 933.7 -0.4 57
2018-07-15 02:00:00 17.5 12 Sur 22 Sudoeste 0 934.1 0.4 51
2018-07-15 01:00:00 18.8 12 Sudoeste 20 Sudoeste 0 934.4 1.4 43
2018-07-15 00:00:00 19.8 9 Sudoeste 16 Sudoeste 0 934.1 1.6 42
2018-07-14 23:00:00 21.9 8 Sur 28 Sudoeste 0 933.7 1.3 36
2018-07-14 22:00:00 24.2 12 Sudoeste 26 Sudoeste 0 933 0.5 32
2018-07-14 21:00:00 27.2 13 Sudoeste 30 Sudoeste 0 932.5 -0.4 27
2018-07-14 20:00:00 28.8 17 Oeste 41 Sudoeste 0 932.4 -0.8 26
2018-07-14 19:00:00 29.5 21 Sudoeste 46 Sudoeste 0 932.5 -0.9 25
2018-07-14 18:00:00 30.1 24 Sudoeste 44 Sudoeste 0 932.9 -0.7 23
2018-07-14 17:00:00 30.6 19 Sudoeste 47 Sudoeste 0 933.2 -0.9 19
2018-07-14 16:00:00 30.3 20 Sudoeste 46 Sudoeste 0 933.4 -0.8 20
2018-07-14 15:00:00 29.9 21 Sudoeste 42 Sudoeste 0 933.6 -0.4 19
2018-07-14 14:00:00 28 21 Sudoeste 43 Sudoeste 0 934.1 0.1 27
2018-07-14 13:00:00 27.5 17 Sudoeste 41 Sudoeste 0 934.2 0.4 30
2018-07-14 12:00:00 25.9 16 Sur 30 Sudoeste 0 934 0.4 35
2018-07-14 11:00:00 24.6 13 Sur 30 Sudeste 0 934 0.7 38
2018-07-14 10:00:00 22.4 8 Sudeste 17 Sudeste 0 933.8 0.7 51
2018-07-14 09:00:00 17.9 6 Sur 14 Sur 0 933.6 0.7 68
2018-07-14 08:00:00 15.4 9 Sur 17 Sudeste 0 933.3 0.3 75
2018-07-14 07:00:00 15.2 9 Sur 14 Sur 0 933.1 0.1 72
2018-07-14 06:00:00 15.6 8 Sur 14 Sur 0 932.9 -0.3 68
2018-07-14 05:00:00 16.4 9 Sur 13 Sur 0 933 -0.3 65
2018-07-14 04:00:00 17.2 6 Sur 9 Sudoeste 0 933 -0.1 61
2018-07-14 03:00:00 17.6 6 Sudoeste 9 Sudoeste 0 933.2 0.4 58
2018-07-14 02:00:00 18.5 6 Sur 8 Sur 0 933.3 0.9 54
2018-07-14 01:00:00 19 5 Sur 9 Sur 0 933.1 1.3 51
2018-07-14 00:00:00 20 5 Sur 10 Sudoeste 0 932.8 1.3 47
2018-07-13 23:00:00 21.7 7 Sudoeste 15 Sudoeste 0 932.4 1.2 40
2018-07-13 22:00:00 24.1 8 Sudoeste 27 Sudoeste 0 931.8 0.6 28
2018-07-13 21:00:00 27.4 16 Sudoeste 31 Sudoeste 0 931.5 0.1 18
2018-07-13 20:00:00 29.1 12 Sur 27 Sudoeste 0 931.2 -0.3 18
2018-07-13 19:00:00 29.6 14 Sudoeste 30 Sur 0 931.2 -0.4 14
2018-07-13 18:00:00 30.4 12 Sur 34 Sudoeste 0 931.4 -0.2 16
2018-07-13 17:00:00 30.5 13 Sudoeste 44 Sudoeste 0 931.5 -0.4 18
2018-07-13 16:00:00 29.7 16 Sudoeste 33 Sur 0 931.6 -0.6 19
2018-07-13 15:00:00 29 13 Sur 31 Sudeste 0 931.6 -0.6 25
2018-07-13 14:00:00 28.2 13 Sur 30 Sur 0 931.9 -0.2 23
2018-07-13 13:00:00 26.7 8 Sur 23 Sur 0 932.2 0.4 40
2018-07-13 12:00:00 24 10 Sur 21 Sudeste 0 932.2 0.9 48
2018-07-13 11:00:00 21.8 9 Sur 21 Sudeste 0 932.1 1 53
2018-07-13 10:00:00 19.1 9 Sur 20 Sur 0 931.8 0.9 68
2018-07-13 09:00:00 15.6 10 Sur 19 Sur 0 931.3 0.3 85
2018-07-13 08:00:00 14.3 10 Sur 18 Sur 0 931.1 0 87
2018-07-13 07:00:00 14.4 9 Sur 15 Sur 0 930.9 0 84
2018-07-13 06:00:00 14.9 9 Sur 21 Sur 0 931 0.1 82
2018-07-13 05:00:00 16 11 Sur 21 Sur 0 931.1 0 81
2018-07-13 04:00:00 16.6 9 Sur 17 Sudeste 0 930.9 -0.4 78
2018-07-13 03:00:00 17 7 Sur 17 Sur 0 930.9 -0.2 77
2018-07-13 02:00:00 17.5 10 Sur 17 Sur 0 931.1 0.8 76
2018-07-13 01:00:00 18.6 10 Sur 19 Sur 0 931.3 1.8 72
2018-07-13 00:00:00 20.1 9 Sur 17 Sur 0 931.1 1.9 62
2018-07-12 23:00:00 22.6 7 Sur 18 Sur 0 930.3 1.3 45
2018-07-12 22:00:00 25.7 9 Sudoeste 22 Sudoeste 0 929.5 0.5 34
2018-07-12 21:00:00 28.8 12 Sur 23 Sur 0 929.2 0 22
2018-07-12 20:00:00 30.5 12 Sur 27 Sudoeste 0 929 -0.5 23
2018-07-12 19:00:00 31.3 14 Sur 35 Sudoeste 0 929 -1.1 25
2018-07-12 18:00:00 32.4 10 Sur 24 Sudoeste 0 929.2 -1.3 21
2018-07-12 17:00:00 31.9 12 Sur 29 Sur 0 929.5 -1.6 22
2018-07-12 16:00:00 31.4 9 Sur 25 Sur 0 930.1 -1.3 23
2018-07-12 15:00:00 30.8 8 Sudoeste 20 Sudoeste 0 930.5 -0.9 27
2018-07-12 14:00:00 29.3 12 Sudoeste 27 Sur 0 931.1 -0.2 30
2018-07-12 13:00:00 28.7 9 Sur 23 Sudeste 0 931.4 0.2 35
2018-07-12 12:00:00 26.7 5 Sur 17 Sudoeste 0 931.4 0.7 44
2018-07-12 11:00:00 24.5 7 Sudeste 15 Sudeste 0 931.3 0.8 54
2018-07-12 10:00:00 20.3 5 Sur 13 Sur 0 931.2 1 71
2018-07-12 09:00:00 16.5 7 Sur 14 Sur 0 930.7 0.7 86
2018-07-12 08:00:00 15.6 7 Sur 13 Sur 0 930.5 0.5 89
2018-07-12 07:00:00 15.8 8 Sur 10 Sur 0 930.2 0 86
2018-07-12 06:00:00 16.1 5 Sur 10 Sur 0 930 -0.3 83
2018-07-12 05:00:00 17 5 Sur 12 Sur 0 930 -0.5 79
2018-07-12 04:00:00 17.9 6 Sur 11 Sur 0 930.2 -0.3 75
2018-07-12 03:00:00 18.9 6 Sur 12 Sur 0 930.3 -0.3 67
2018-07-12 02:00:00 20.1 6 Sur 10 Sur 0 930.5 0.3 59
2018-07-12 01:00:00 21.4 4 Sur 12 Oeste 0 930.5 0.9 57
2018-07-12 00:00:00 22.6 6 Oeste 10 Oeste 0 930.6 1.5 52
2018-07-11 23:00:00 24.1 4 Oeste 18 Oeste 0 930.2 1.5 44
2018-07-11 22:00:00 25.5 5 Oeste 27 Sudoeste 0 929.6 0.7 37
2018-07-11 21:00:00 27.6 13 Sudoeste 32 Sudoeste 0 929.1 0.1 29
2018-07-11 20:00:00 30.7 15 Sudoeste 30 Sudoeste 0 928.7 -0.9 21
2018-07-11 19:00:00 31.5 15 Sudoeste 33 Sudoeste 0 928.9 -1 19
2018-07-11 18:00:00 31.6 17 Sudoeste 36 Sudoeste 0 929 -1.3 19
2018-07-11 17:00:00 31.5 14 Sudoeste 37 Sudoeste 0 929.6 -1 19
2018-07-11 16:00:00 31.3 17 Sudoeste 34 Sudoeste 0 929.9 -1 22
2018-07-11 15:00:00 30.6 15 Sudoeste 35 Sudoeste 0 930.3 -0.7 28
2018-07-11 14:00:00 30.3 15 Sudoeste 31 Oeste 0 930.6 -0.7 25
2018-07-11 13:00:00 29.6 13 Sur 30 Sudoeste 0 930.9 -0.8 32
2018-07-11 12:00:00 28.1 7 Sur 23 Sudoeste 0 931 -0.4 40
2018-07-11 11:00:00 26.3 6 Sur 17 Sudoeste 0 931.3 0 45
2018-07-11 10:00:00 23 5 Sudoeste 15 Sur 0 931.7 0.8 61
2018-07-11 09:00:00 19 8 Sur 15 Sur 0 931.4 0 81
2018-07-11 08:00:00 16.4 8 Sur 12 Sur 0 931.3 -0.4 86
2018-07-11 07:00:00 16.6 9 Sudeste 12 Sudeste 0 930.9 -0.9 84
2018-07-11 06:00:00 16.7 7 Sur 15 Sur 0 931.4 -0.5 81
2018-07-11 05:00:00 17.5 6 Sur 13 Sur 0 931.7 -0.6 76
2018-07-11 04:00:00 19 5 Sur 14 Sur 0 931.8 -0.7 70
2018-07-11 03:00:00 21.1 7 Sur 12 Sudoeste 0 931.9 -0.8 65
2018-07-11 02:00:00 23 7 Sudoeste 18 Oeste 0 932.3 -0.1 60
2018-07-11 01:00:00 24 11 Oeste 15 Oeste 0 932.5 0.7 55
2018-07-11 00:00:00 24.9 9 Oeste 17 Oeste 0 932.7 1.3 50
2018-07-10 23:00:00 26 8 Oeste 20 Sudoeste 0 932.4 1.2 42
2018-07-10 22:00:00 27.9 13 Sudoeste 30 Sudoeste 0 931.8 0.5 34
2018-07-10 21:00:00 30.6 15 Sudoeste 36 Sudoeste 0 931.4 -0.2 28
2018-07-10 20:00:00 32.3 18 Sudoeste 39 Oeste 0 931.2 -0.6 23
2018-07-10 19:00:00 33.6 22 Sudoeste 37 Sudoeste 0 931.3 -0.8 19
2018-07-10 18:00:00 34 13 Sudoeste 38 Sudoeste 0 931.6 -0.9 19
2018-07-10 17:00:00 34.6 20 Sudoeste 40 Oeste 0 931.8 -1.3 20
2018-07-10 16:00:00 34.1 12 Sudoeste 34 Sudoeste 0 932.1 -1.6 20
2018-07-10 15:00:00 34.1 11 Noroeste 26 Noroeste 0 932.5 -1.3 17
2018-07-10 14:00:00 32.7 5 Noroeste 27 Norte 0 933.1 -0.7 22
2018-07-10 13:00:00 31.9 9 Oeste 19 Noroeste 0 933.7 -0.1 22
2018-07-10 12:00:00 30.5 8 Noroeste 20 Noroeste 0 933.8 0.1 25
2018-07-10 11:00:00 29.3 7 Norte 15 Norte 0 933.8 0.4 25
2018-07-10 10:00:00 27 5 Noroeste 10 Noroeste 0 933.8 0.4 30
2018-07-10 09:00:00 23.8 3 Oeste 14 Noroeste 0 933.7 0.4 38
2018-07-10 08:00:00 21.9 8 Noroeste 13 Norte 0 933.4 0.2 42
2018-07-10 07:00:00 20.8 8 Noroeste 11 Oeste 0 933.4 0.2 43
2018-07-10 06:00:00 21.6 8 Noroeste 15 Noroeste 0 933.3 0 40
2018-07-10 05:00:00 22.3 9 Noroeste 17 Noroeste 0 933.2 -0.4 38
2018-07-10 04:00:00 23.1 8 Oeste 14 Noroeste 0 933.2 -0.5 36
2018-07-10 03:00:00 24.1 8 Noroeste 15 Oeste 0 933.3 -0.6 33
2018-07-10 02:00:00 24.9 6 Noroeste 16 Noroeste 0 933.6 0.1 32
2018-07-10 01:00:00 25.8 9 Noroeste 17 Oeste 0 933.7 0.9 29
2018-07-10 00:00:00 25.6 11 Oeste 18 Oeste 0 933.9 1.6 31
2018-07-09 23:00:00 27.5 11 Sudoeste 18 Sudoeste 0 933.5 1.4 29
2018-07-09 22:00:00 29.1 12 Sudoeste 27 Sudoeste 0 932.8 0.6 26
2018-07-09 21:00:00 32.5 14 Sudoeste 26 Sudoeste 0 932.3 -0.2 20
2018-07-09 20:00:00 34.5 12 Sudoeste 30 Oeste 0 932.1 -0.7 17
2018-07-09 19:00:00 35.3 13 Sudoeste 27 Sudoeste 0 932.2 -1.2 16
2018-07-09 18:00:00 35.4 7 Sudoeste 30 Sudoeste 0 932.5 -1.4 16
2018-07-09 17:00:00 35.3 5 Sur 25 Oeste 0 932.8 -1.6 17
2018-07-09 16:00:00 34.6 7 Oeste 28 Oeste 0 933.4 -1.5 16
2018-07-09 15:00:00 34.3 10 Sur 29 Sudoeste 0 933.9 -1.2 17
2018-07-09 14:00:00 33.7 7 Sur 27 Sudoeste 0 934.4 -0.9 21
2018-07-09 13:00:00 32.1 5 Noroeste 23 Oeste 0 934.9 -0.4 20
2018-07-09 12:00:00 30.2 7 Oeste 17 Noroeste 0 935.1 0.3 23
2018-07-09 11:00:00 28.7 6 Oeste 16 Oeste 0 935.3 0.6 26
2018-07-09 10:00:00 26.8 4 Oeste 9 Oeste 0 935.3 0.8 30
2018-07-09 09:00:00 23.4 2 Oeste 4 Oeste 0 934.8 0.5 35
2018-07-09 08:00:00 20.1 4 Oeste 6 Sudoeste 0 934.7 0.6 43
2018-07-09 07:00:00 18.9 5 Sur 9 Sur 0 934.5 0.4 45
2018-07-09 06:00:00 20 7 Sur 17 Noroeste 0 934.3 0.2 41
2018-07-09 05:00:00 22 9 Noroeste 16 Noroeste 0 934.1 -0.3 36
2018-07-09 04:00:00 22.2 9 Noroeste 15 Noroeste 0 934.1 -0.5 36
2018-07-09 03:00:00 23.1 9 Noroeste 15 Noroeste 0 934.1 -0.4 35
2018-07-09 02:00:00 23.7 9 Noroeste 14 Noroeste 0 934.4 0.3 36
2018-07-09 01:00:00 24.8 8 Noroeste 21 Noroeste 0 934.6 1.4 35
2018-07-09 00:00:00 25.7 14 Oeste 24 Noroeste 0 934.5 1.8 32
2018-07-08 23:00:00 26.1 7 Sudoeste 17 Sudoeste 0 934.1 1.7 29
2018-07-08 22:00:00 28.6 9 Sudoeste 23 Sudoeste 0 933.2 0.6 25
2018-07-08 21:00:00 31.7 14 Sudoeste 30 Sudoeste 0 932.7 0 21
2018-07-08 20:00:00 33.4 13 Sudoeste 29 Sudoeste 0 932.4 -0.5 20
2018-07-08 19:00:00 34.5 12 Sur 26 Sudoeste 0 932.6 -0.7 18
2018-07-08 18:00:00 35.4 12 Sudoeste 27 Sur 0 932.7 -1 17
2018-07-08 17:00:00 34.3 10 Sudoeste 30 Sudoeste 0 932.9 -1.1 16
2018-07-08 16:00:00 34.3 8 Sur 28 Sudoeste 0 933.3 -0.9 17
2018-07-08 15:00:00 33.5 14 Sudoeste 31 Sur 0 933.7 -0.6 19
2018-07-08 14:00:00 33.3 10 Sur 22 Sur 0 934 -0.1 21
2018-07-08 13:00:00 31.9 7 Sur 23 Sudoeste 0 934.2 0.4 25
2018-07-08 12:00:00 30.1 6 Sudoeste 21 Oeste 0 934.3 0.8 26
2018-07-08 11:00:00 28.6 5 Noroeste 12 Oeste 0 934.1 1 29
2018-07-08 10:00:00 27 2 Sudeste 6 Este 0 933.8 0.9 34
2018-07-08 09:00:00 21.9 2 Noroeste 10 Sudeste 0 933.5 1.2 50
2018-07-08 08:00:00 18.5 7 Sur 15 Sur 0 933.1 0.9 55
2018-07-08 07:00:00 18.3 8 Sur 12 Sur 0 932.9 0.3 51
2018-07-08 06:00:00 19.4 6 Oeste 11 Noroeste 0 932.3 -0.4 52
2018-07-08 05:00:00 19.4 4 Sudoeste 7 Sudoeste 0 932.2 -0.5 44
2018-07-08 04:00:00 20.8 5 Sur 11 Oeste 0 932.6 -0.4 41
2018-07-08 03:00:00 23.5 7 Oeste 12 Oeste 0 932.7 -0.2 34
2018-07-08 02:00:00 23.9 7 Oeste 11 Oeste 0 932.7 0.3 36
2018-07-08 01:00:00 24.6 8 Oeste 19 Oeste 0 933 1.4 33
2018-07-08 00:00:00 25.6 11 Oeste 20 Sudoeste 0 932.9 1.7 28
2018-07-07 23:00:00 26.3 11 Sudoeste 18 Sudoeste 0 932.4 1.5 24
2018-07-07 22:00:00 28.6 10 Sur 22 Sudoeste 0 931.6 0.5 20
2018-07-07 21:00:00 32.4 7 Sudoeste 18 Sudoeste 0 931.2 -0.2 15
2018-07-07 20:00:00 33.5 8 Sudoeste 23 Oeste 0 930.9 -1.1 14
2018-07-07 19:00:00 33.9 9 Sudoeste 32 Sudeste 0 931.1 -1.2 13
2018-07-07 18:00:00 33.8 9 Oeste 23 Sur 0 931.4 -1.4 13
2018-07-07 17:00:00 33.9 10 Sur 28 Sudoeste 0 932 -1.5 14
2018-07-07 16:00:00 33.6 11 Sur 26 Sur 0 932.3 -1.7 15
2018-07-07 15:00:00 32.9 10 Sudoeste 26 Sudoeste 0 932.8 -1.2 18
2018-07-07 14:00:00 31.2 9 Sudeste 23 Sur 0 933.5 -0.4 20
2018-07-07 13:00:00 31.3 10 Sudoeste 24 Oeste 0 934 0.1 20
2018-07-07 12:00:00 29.4 7 Sudeste 21 Sur 0 934 0.5 26
2018-07-07 11:00:00 28.1 8 Sur 16 Sudoeste 0 933.9 0.7 29
2018-07-07 10:00:00 26.1 5 Sur 11 Sur 0 933.9 0.7 32
2018-07-07 09:00:00 21.8 2 Oeste 5 Oeste 0 933.5 0.3 47
2018-07-07 08:00:00 18.3 4 Sudoeste 9 Sur 0 933.2 0 53
2018-07-07 07:00:00 18.1 7 Sur 10 Sudeste 0 933.2 0 52
2018-07-07 06:00:00 19.3 8 Sur 11 Sur 0 933.2 -0.2 49
2018-07-07 05:00:00 19.4 5 Sur 9 Sur 0 933.2 -0.6 48
2018-07-07 04:00:00 20.7 4 Sudoeste 12 Noroeste 0 933.2 -1 45
2018-07-07 03:00:00 21.5 7 Norte 14 Noroeste 0 933.4 -0.9 41
2018-07-07 02:00:00 21.8 9 Noroeste 15 Noroeste 0 933.8 -0.1 40
2018-07-07 01:00:00 22.2 8 Noroeste 16 Noroeste 0 934.2 1.1 41
2018-07-07 00:00:00 22.9 8 Noroeste 16 Noroeste 0 934.3 2 38
2018-07-06 23:00:00 24.3 8 Noroeste 17 Noroeste 0 933.9 1.8 33
2018-07-06 22:00:00 25.8 8 Noroeste 23 Sudoeste 0 933.1 0.9 29
2018-07-06 21:00:00 29.6 11 Sudoeste 30 Sudoeste 0 932.3 -0.4 18
2018-07-06 20:00:00 31.7 17 Sudoeste 33 Sudoeste 0 932.1 -1 16
2018-07-06 19:00:00 32.3 14 Oeste 30 Sudoeste 0 932.2 -1.2 17
2018-07-06 18:00:00 33.2 10 Sudoeste 29 Sudoeste 0 932.7 -1.2 15
2018-07-06 17:00:00 32.6 10 Oeste 27 Sur 0 933.1 -1.1 14
2018-07-06 16:00:00 32.4 9 Sur 31 Sur 0 933.4 -1.2 17
2018-07-06 15:00:00 32.1 13 Sudoeste 30 Sudeste 0 933.9 -0.9 19
2018-07-06 14:00:00 31.2 6 Sudoeste 22 Sur 0 934.2 -0.7 20
2018-07-06 13:00:00 29.4 6 Sudoeste 23 Sur 0 934.6 -0.2 22
2018-07-06 12:00:00 29 8 Sur 18 Sudeste 0 934.8 0.1 25
2018-07-06 11:00:00 27.4 6 Sudeste 14 Sur 0 934.9 0.5 27
2018-07-06 10:00:00 24.3 3 Este 14 Noroeste 0 934.8 0.4 39
2018-07-06 09:00:00 19.9 6 Norte 13 Norte 0 934.7 0.7 53
2018-07-06 08:00:00 17.7 5 Norte 13 Norte 0 934.4 0.2 54
2018-07-06 07:00:00 17.2 7 Norte 14 Noroeste 0 934.4 -0.1 50
2018-07-06 06:00:00 17.5 8 Noroeste 15 Noroeste 0 934 -0.8 50
2018-07-06 05:00:00 18.3 7 Norte 13 Noroeste 0 934.2 -1 44
2018-07-06 04:00:00 19.3 7 Norte 13 Norte 0 934.5 -0.9 41
2018-07-06 03:00:00 19.9 6 Norte 13 Norte 0 934.8 -0.6 38
2018-07-06 02:00:00 20.4 7 Norte 13 Norte 0 935.2 0.3 36
2018-07-06 01:00:00 20.4 7 Norte 13 Norte 0 935.4 1 34
2018-07-06 00:00:00 20.6 5 Nordeste 14 Norte 0 935.4 1.3 35
2018-07-05 23:00:00 21.6 8 Norte 14 Noroeste 0 934.9 1 33
2018-07-05 22:00:00 23.9 8 Norte 22 Noroeste 0 934.4 0.5 29
2018-07-05 21:00:00 27.2 8 Norte 22 Oeste 0 934.1 -0.1 25
2018-07-05 20:00:00 28.3 12 Noroeste 27 Noroeste 0 933.9 -0.7 21
2018-07-05 19:00:00 28.7 16 Noroeste 35 Oeste 0 933.9 -1.2 21
2018-07-05 18:00:00 28.9 8 Noroeste 33 Noroeste 0 934.2 -1.3 21
2018-07-05 17:00:00 29.4 10 Sudoeste 29 Oeste 0 934.6 -1.3 21
2018-07-05 16:00:00 28 10 Noroeste 28 Oeste 0 935.1 -1 24
2018-07-05 15:00:00 27.3 7 Noroeste 27 Noroeste 0 935.5 -0.8 26
2018-07-05 14:00:00 26.6 8 Noroeste 24 Noroeste 0 935.9 -0.5 25
2018-07-05 13:00:00 25.1 11 Oeste 26 Oeste 0 936.1 -0.1 32
2018-07-05 12:00:00 23.3 13 Oeste 26 Oeste 0 936.3 0.4 38
2018-07-05 11:00:00 21.3 7 Oeste 19 Noroeste 0 936.4 0.8 46
2018-07-05 10:00:00 19 10 Noroeste 20 Noroeste 0 936.2 0.6 54
2018-07-05 09:00:00 16.4 9 Noroeste 18 Noroeste 0 935.9 0.5 68
2018-07-05 08:00:00 14.8 8 Noroeste 14 Noroeste 0 935.6 0.2 72
2018-07-05 07:00:00 13.9 6 Noroeste 15 Noroeste 0 935.6 0.5 73
2018-07-05 06:00:00 14.4 8 Noroeste 19 Noroeste 0 935.4 0 71
2018-07-05 05:00:00 15.3 12 Noroeste 22 Noroeste 0 935.4 -0.1 66
2018-07-05 04:00:00 15.9 9 Noroeste 21 Noroeste 0 935.1 -0.3 62
2018-07-05 03:00:00 16.5 9 Noroeste 17 Noroeste 0 935.4 0.1 60
2018-07-05 02:00:00 17.1 9 Noroeste 22 Noroeste 0 935.5 0.7 56
2018-07-05 01:00:00 17.7 7 Noroeste 16 Oeste 0 935.4 1.2 51
2018-07-05 00:00:00 18.5 5 Oeste 14 Noroeste 0 935.3 1.4 47
2018-07-04 23:00:00 19.5 6 Oeste 12 Oeste 0 934.8 1.2 43
2018-07-04 22:00:00 20.9 7 Noroeste 26 Oeste 0 934.2 0.9 39
2018-07-04 21:00:00 23.4 15 Oeste 33 Norte 0 933.9 0.5 33
2018-07-04 20:00:00 24.5 18 Noroeste 38 Noroeste 0 933.6 0.2 31
2018-07-04 19:00:00 25.9 20 Oeste 37 Oeste 0 933.3 -0.2 27
2018-07-04 18:00:00 26 18 Oeste 36 Noroeste 0 933.4 -0.3 25
2018-07-04 17:00:00 26.2 19 Oeste 38 Oeste 0 933.4 -0.2 24
2018-07-04 16:00:00 26.2 14 Oeste 39 Oeste 0 933.5 -0.1 22
2018-07-04 15:00:00 25.6 20 Oeste 45 Oeste 0 933.7 0.4 27
2018-07-04 14:00:00 25 18 Oeste 34 Oeste 0 933.6 0.5 31
2018-07-04 13:00:00 24.2 15 Sudoeste 35 Sudoeste 0 933.6 0.8 33
2018-07-04 12:00:00 22.3 13 Oeste 32 Oeste 0 933.3 0.8 42
2018-07-04 11:00:00 21.2 12 Oeste 23 Oeste 0 933.1 0.9 47
2018-07-04 10:00:00 19.7 5 Sur 10 Sudoeste 0 932.8 0.8 54
2018-07-04 09:00:00 16.1 7 Noroeste 15 Noroeste 0 932.5 0.7 67
2018-07-04 08:00:00 14.1 6 Oeste 12 Oeste 0 932.2 0.3 74
2018-07-04 07:00:00 13.9 8 Oeste 13 Oeste 0 932 0.5 73
2018-07-04 06:00:00 15 6 Oeste 16 Oeste 0 931.8 0 67
2018-07-04 05:00:00 16.4 7 Oeste 18 Oeste 0 931.9 -0.2 63
2018-07-04 04:00:00 17.1 9 Sudoeste 12 Sur 0 931.5 -0.6 64
2018-07-04 03:00:00 18.2 8 Sur 14 Sur 0 931.8 -0.2 60
2018-07-04 02:00:00 19.1 7 Sur 12 Sur 0 932.1 0.5 52
2018-07-04 01:00:00 20.4 9 Sudoeste 16 Sudoeste 0 932.1 1.2 40
2018-07-04 00:00:00 21.4 11 Sudoeste 20 Sudoeste 0 932 1.3 30
2018-07-03 23:00:00 22.2 7 Sur 16 Sudoeste 0 931.6 1.1 25
2018-07-03 22:00:00 25.6 11 Sudoeste 25 Sudoeste 0 930.9 0.4 21
2018-07-03 21:00:00 29.1 12 Sudoeste 27 Sur 0 930.7 0 18
2018-07-03 20:00:00 30.8 13 Sudoeste 29 Sudoeste 0 930.5 -0.5 17
2018-07-03 19:00:00 31.3 13 Sur 27 Sudoeste 0 930.5 -0.8 20
2018-07-03 18:00:00 32 10 Sur 26 Sudoeste 0 930.7 -1 18
2018-07-03 17:00:00 32 9 Sur 28 Sudoeste 0 931 -1.1 15
2018-07-03 16:00:00 31.8 9 Sur 23 Sudoeste 0 931.3 -1.1 19
2018-07-03 15:00:00 29.7 6 Nordeste 18 Sur 0 931.7 -0.9 23
2018-07-03 14:00:00 28.9 4 Sur 21 Sudoeste 0 932.1 -0.4 22
2018-07-03 13:00:00 27.9 6 Sudeste 18 Sudeste 0 932.4 -0.3 28
2018-07-03 12:00:00 26.7 5 Sudeste 15 Sur 0 932.6 0.3 30
2018-07-03 11:00:00 24.4 7 Este 15 Este 0 932.5 0 39
2018-07-03 10:00:00 21 6 Norte 14 Norte 0 932.7 0.5 52
2018-07-03 09:00:00 18.5 5 Norte 15 Norte 0 932.3 0.2 64
2018-07-03 08:00:00 16.5 5 Norte 13 Norte 0 932.5 0.3 73
2018-07-03 07:00:00 15.4 6 Norte 14 Norte 0 932.2 0 75
2018-07-03 06:00:00 15.6 6 Norte 13 Norte 0 932.1 -0.4 71
2018-07-03 05:00:00 16.1 6 Norte 13 Noroeste 0 932.2 -0.7 67
2018-07-03 04:00:00 16.4 7 Norte 14 Norte 0 932.2 -0.9 66
2018-07-03 03:00:00 17.1 8 Norte 14 Norte 0 932.5 -0.5 62
2018-07-03 02:00:00 17.9 8 Noroeste 14 Norte 0 932.9 0.1 59
2018-07-03 01:00:00 18.4 8 Noroeste 15 Noroeste 0 933.1 0.9 57
2018-07-03 00:00:00 19 6 Norte 13 Noroeste 0 933 1.4 54
2018-07-02 23:00:00 20.1 5 Noroeste 12 Noroeste 0 932.8 1.3 50
2018-07-02 22:00:00 22.8 5 Oeste 19 Noroeste 0 932.2 0.8 38
2018-07-02 21:00:00 25.8 8 Oeste 22 Noroeste 0 931.6 0 30
2018-07-02 20:00:00 27.2 7 Sudoeste 26 Oeste 0 931.5 -0.2 27
2018-07-02 19:00:00 27.2 13 Oeste 29 Oeste 0 931.4 -0.6 28
2018-07-02 18:00:00 27.3 10 Oeste 25 Sudoeste 0 931.6 -0.5 30
2018-07-02 17:00:00 26 5 Oeste 28 Oeste 0 931.7 -0.5 33
2018-07-02 16:00:00 25.1 6 Oeste 27 Sudoeste 0 932 -0.4 34
2018-07-02 15:00:00 26.6 6 Sudoeste 21 Oeste 0 932.1 -0.3 33
2018-07-02 14:00:00 24.6 8 Oeste 19 Sudoeste 0 932.2 -0.1 37
2018-07-02 13:00:00 22.4 3 Sur 19 Oeste 0 932.4 0.3 44
2018-07-02 12:00:00 22.5 5 Sur 15 Oeste 0 932.4 0.6 48
2018-07-02 11:00:00 20.1 5 Sudeste 13 Sudeste 0 932.3 1.2 59
2018-07-02 10:00:00 16.8 5 Sudoeste 13 Sudeste 0 932.1 1.4 78
2018-07-02 09:00:00 13.8 4 Sudeste 13 Sudeste 0 931.8 1.4 91
2018-07-02 08:00:00 12.9 8 Sur 15 Sur 0 931.1 1 92
2018-07-02 07:00:00 12.9 6 Sur 16 Sur 0 930.7 0.5 87
2018-07-02 06:00:00 13.8 8 Sur 13 Sur 0 930.4 0 82
2018-07-02 05:00:00 13.5 8 Sur 14 Sur 0 930.1 -0.2 82
2018-07-02 04:00:00 14 5 Sur 11 Sur 0 930.2 -0.2 79
2018-07-02 03:00:00 14.2 4 Sur 12 Sur 0 930.4 0.1 76
2018-07-02 02:00:00 15.2 7 Sur 18 Sudeste 0 930.3 0.1 73
2018-07-02 01:00:00 15.8 7 Sur 17 Sudoeste 0 930.4 1 69
2018-07-02 00:00:00 17 9 Sudoeste 18 Sudoeste 0 930.3 1.3 64
2018-07-01 23:00:00 18.2 8 Sudoeste 18 Sudoeste 0 930.2 1.5 58
2018-07-01 22:00:00 20.2 12 Sudoeste 26 Sur 0 929.4 0.9 50
2018-07-01 21:00:00 22.8 13 Sur 28 Sudoeste 0 929 0.4 41
2018-07-01 20:00:00 23.4 15 Sudoeste 35 Oeste 0 928.7 0.1 37
2018-07-01 19:00:00 25 17 Sudoeste 35 Sudoeste 0 928.5 -0.4 33
2018-07-01 18:00:00 25.3 15 Sur 47 Sur 0 928.6 -0.6 33
2018-07-01 17:00:00 26.1 13 Sudoeste 38 Sudoeste 0 928.6 -0.8 33
2018-07-01 16:00:00 24.6 10 Sudoeste 33 Sudoeste 0 928.9 -0.6 33
2018-07-01 15:00:00 24.6 14 Sudoeste 33 Sudoeste 0 929.2 0 35
2018-07-01 14:00:00 22.7 14 Sudoeste 35 Sudoeste 0 929.4 0.5 42
2018-07-01 13:00:00 22.8 14 Sudoeste 28 Sudoeste 0 929.5 0.7 44
2018-07-01 12:00:00 20.9 12 Oeste 22 Oeste 0 929.2 0.5 50
2018-07-01 11:00:00 20 8 Sur 18 Sur 0 928.9 0.7 57
2018-07-01 10:00:00 18.4 6 Sur 18 Sudeste 0 928.8 0.9 68
2018-07-01 09:00:00 15.3 8 Sur 16 Sudeste 0 928.7 1 88
2018-07-01 08:00:00 14.1 7 Sur 14 Sudeste 0 928.2 0.8 91
2018-07-01 07:00:00 13.5 8 Sudeste 13 Sur 0 927.9 0.6 90
2018-07-01 06:00:00 14 6 Sudeste 11 Sudeste 0 927.7 0.3 89
2018-07-01 05:00:00 13.7 4 Este 16 Sudoeste 0 927.4 0 88
2018-07-01 04:00:00 14.4 8 Sudoeste 15 Sudoeste 0 927.3 -0.1 85
2018-07-01 03:00:00 15.2 6 Sur 12 Sur 0 927.4 0.1 83
2018-07-01 02:00:00 15.8 4 Sur 13 Sudoeste 0 927.4 0.4 80
2018-07-01 01:00:00 16.7 6 Sur 13 Sur 0 927.4 1 76
2018-07-01 00:00:00 17.8 6 Sur 16 Sudoeste 0 927.3 1.3 71
2018-06-30 23:00:00 19.1 10 Sudoeste 24 Sudoeste 0 927 1.3 67
2018-06-30 22:00:00 20.3 13 Sudoeste 31 Sudoeste 0 926.4 0.9 61
2018-06-30 21:00:00 22.8 16 Sudoeste 33 Sudoeste 0 926 0.6 51
2018-06-30 20:00:00 24.4 17 Sudoeste 35 Sudoeste 0 925.7 0.4 43
2018-06-30 19:00:00 25.9 19 Sudoeste 36 Oeste 0 925.5 0 36
2018-06-30 18:00:00 27.3 18 Sudoeste 45 Sudoeste 0 925.4 0 28
2018-06-30 17:00:00 27.3 20 Sudoeste 44 Sur 0 925.3 -0.3 29
2018-06-30 16:00:00 26.8 18 Sudoeste 42 Sudoeste 0 925.5 0 29
2018-06-30 15:00:00 27.1 18 Sudoeste 41 Sudoeste 0 925.4 0 30
2018-06-30 14:00:00 25 17 Sudoeste 36 Sudoeste 0 925.6 0.4 37
2018-06-30 13:00:00 26.2 17 Sur 39 Sudoeste 0 925.5 0.4 32
2018-06-30 12:00:00 23.4 14 Sudoeste 30 Sudoeste 0 925.4 0.3 47
2018-06-30 11:00:00 21.8 12 Sur 25 Sur 0 925.2 0.1 53
2018-06-30 10:00:00 19.2 7 Sur 13 Sur 0 925.1 0.2 60
2018-06-30 09:00:00 17.9 7 Sudeste 13 Sur 0 925.1 0.2 60
2018-06-30 08:00:00 16.7 4 Sudeste 12 Sudeste 0 925.1 -0.1 62
2018-06-30 07:00:00 16.7 5 Sudeste 12 Sudeste 0 924.9 -0.1 62
2018-06-30 06:00:00 17.1 5 Sudoeste 13 Sur 0 924.9 -0.3 61
2018-06-30 05:00:00 17.3 7 Sur 15 Sur 0 925.2 0.3 54
2018-06-30 04:00:00 17.8 6 Sur 12 Sur 0 925 0.1 58
2018-06-30 03:00:00 18.9 8 Sur 17 Sudoeste 0 925.2 0.6 55
2018-06-30 02:00:00 20.2 10 Sudoeste 21 Sudoeste 0 924.9 0.6 48
2018-06-30 01:00:00 21 9 Sudoeste 19 Sudoeste 0 924.9 1 49
2018-06-30 00:00:00 22.3 10 Sudoeste 19 Sudoeste 0 924.6 1.3 44
2018-06-29 23:00:00 23.3 10 Sudoeste 20 Oeste 0 924.3 1.2 34
2018-06-29 22:00:00 25.1 9 Sudoeste 23 Sudoeste 0 923.9 0.6 25
2018-06-29 21:00:00 28.1 11 Sudoeste 26 Sudoeste 0 923.3 -0.2 20
2018-06-29 20:00:00 29.5 13 Sudoeste 25 Sudoeste 0 923.1 -0.5 16
2018-06-29 19:00:00 30 14 Sudoeste 32 Sudoeste 0 923.3 -0.5 13
2018-06-29 18:00:00 30.3 13 Sur 32 Sudeste 0 923.5 -0.8 20
2018-06-29 17:00:00 30.2 12 Sur 31 Sur 0 923.6 -1.2 22
2018-06-29 16:00:00 30.2 10 Sur 25 Sudeste 0 923.8 -1.3 24
2018-06-29 15:00:00 29.7 12 Sur 30 Sudoeste 0 924.3 -0.9 26
2018-06-29 14:00:00 29.2 10 Sur 26 Sudeste 0 924.8 -0.5 26
2018-06-29 13:00:00 28.3 6 Sur 22 Sur 0 925.1 -0.4 30
2018-06-29 12:00:00 27 6 Sudoeste 14 Sudoeste 0 925.2 -0.4 31
2018-06-29 11:00:00 25.1 3 Sur 15 Norte 0 925.3 -0.2 37
2018-06-29 10:00:00 21.7 5 Norte 14 Noroeste 0 925.5 -0.1 49
2018-06-29 09:00:00 19 7 Noroeste 11 Noroeste 0 925.6 0 58
2018-06-29 08:00:00 17.1 5 Oeste 9 Noroeste 0 925.5 -0.2 65
2018-06-29 07:00:00 15.1 7 Noroeste 8 Noroeste 0 925.6 -0.4 74
2018-06-29 06:00:00 14.9 6 Sur 9 Sur 0 925.6 -0.7 76
2018-06-29 05:00:00 15.3 6 Sur 13 Sur 0 925.7 -0.9 74
2018-06-29 04:00:00 15.9 7 Sur 12 Sur 0 926 -1 74
2018-06-29 03:00:00 17.2 6 Sur 13 Sur 0 926.3 -0.7 67
2018-06-29 02:00:00 18.3 5 Sudoeste 9 Oeste 0 926.6 0.1 51
2018-06-29 01:00:00 18.7 5 Sudoeste 10 Sudoeste 0 927 0.8 53
2018-06-29 00:00:00 19.9 6 Sudoeste 14 Noroeste 0 927 1 47
2018-06-28 23:00:00 21.6 8 Sudoeste 13 Sudoeste 0 926.5 0.2 43
2018-06-28 22:00:00 23.1 9 Sur 16 Oeste 0 926.2 0.1 34
2018-06-28 21:00:00 24.1 8 Oeste 23 Oeste 0 926 -0.3 34
2018-06-28 20:00:00 24.1 12 Oeste 32 Sudoeste 0 926.3 -0.3 44
2018-06-28 19:00:00 26.8 17 Sudoeste 34 Sudoeste 0 926.1 -1.3 34
2018-06-28 18:00:00 30.2 7 Sudoeste 26 Noroeste 0 926.3 -1.5 24
2018-06-28 17:00:00 28.7 7 Noroeste 27 Noroeste 0 926.6 -1.8 27
2018-06-28 16:00:00 27.9 8 Oeste 33 Oeste 0 927.4 -1.3 27
2018-06-28 15:00:00 28.6 16 Noroeste 31 Noroeste 0 927.8 -1.2 25
2018-06-28 14:00:00 28.9 8 Noroeste 22 Sudoeste 0 928.4 -0.7 23
2018-06-28 13:00:00 29.6 7 Oeste 19 Oeste 0 928.7 -0.6 22
2018-06-28 12:00:00 27.2 11 Oeste 23 Oeste 0 929 -0.3 26
2018-06-28 11:00:00 24.6 12 Noroeste 22 Noroeste 0 929.1 -0.3 38
2018-06-28 10:00:00 22.2 7 Norte 17 Noroeste 0 929.3 0 45
2018-06-28 09:00:00 19.6 9 Norte 19 Noroeste 0 929.3 0.1 51
2018-06-28 08:00:00 17.4 9 Noroeste 21 Noroeste 0 929.4 0 59
2018-06-28 07:00:00 17 10 Noroeste 19 Noroeste 0 929.3 -0.6 55
2018-06-28 06:00:00 17.5 12 Noroeste 19 Noroeste 0 929.2 -1.3 52
2018-06-28 05:00:00 17.8 11 Noroeste 18 Noroeste 0 929.4 -1.5 49
2018-06-28 04:00:00 18.2 9 Noroeste 14 Noroeste 0 929.9 -1 41
2018-06-28 03:00:00 19.6 8 Noroeste 11 Noroeste 0 930.5 -0.5 34
2018-06-28 02:00:00 20.7 7 Noroeste 15 Noroeste 0 930.9 -0.1 30
2018-06-28 01:00:00 21.6 7 Norte 13 Noroeste 0 930.9 0.3 28
2018-06-28 00:00:00 22 7 Noroeste 14 Norte 0 931 1 29
2018-06-27 23:00:00 22.9 9 Noroeste 19 Noroeste 0 931 1.5 27
2018-06-27 22:00:00 24.6 11 Noroeste 26 Noroeste 0 930.6 1 26
2018-06-27 21:00:00 27.2 12 Noroeste 28 Oeste 0 930 -0.1 24
2018-06-27 20:00:00 31.1 10 Sudoeste 28 Sudoeste 0 929.5 -1 21
2018-06-27 19:00:00 31.9 12 Sudoeste 28 Sudoeste 0 929.6 -1.7 21
2018-06-27 18:00:00 31.8 11 Sudoeste 27 Oeste 0 930.1 -1.7 21
2018-06-27 17:00:00 31.8 15 Oeste 36 Oeste 0 930.5 -1.8 22
2018-06-27 16:00:00 31.7 8 Sur 27 Sudoeste 0 931.3 -1.6 22
2018-06-27 15:00:00 31.4 9 Sudoeste 24 Oeste 0 931.8 -1.5 26
2018-06-27 14:00:00 28.9 8 Oeste 23 Sudoeste 0 932.3 -1.2 29
2018-06-27 13:00:00 28.2 7 Oeste 21 Oeste 0 932.9 -0.7 31
2018-06-27 12:00:00 27.1 5 Sudoeste 22 Sudoeste 0 933.3 -0.3 33
2018-06-27 11:00:00 25.1 7 Oeste 14 Sudoeste 0 933.5 0.1 38
2018-06-27 10:00:00 22.1 4 Noroeste 13 Noroeste 0 933.6 0.3 48
2018-06-27 09:00:00 19.5 4 Norte 9 Noroeste 0 933.6 0.3 56
2018-06-27 08:00:00 17.5 5 Noroeste 12 Noroeste 0 933.4 0.1 62
2018-06-27 07:00:00 16.3 5 Noroeste 11 Noroeste 0 933.3 0.2 66
2018-06-27 06:00:00 16.6 7 Noroeste 13 Noroeste 0 933.3 -0.1 65
2018-06-27 05:00:00 17.5 6 Noroeste 17 Noroeste 0 933.3 -0.2 59
2018-06-27 04:00:00 18.8 8 Noroeste 19 Noroeste 0 933.1 -0.5 55
2018-06-27 03:00:00 19.8 8 Noroeste 17 Noroeste 0 933.4 0.1 53
2018-06-27 02:00:00 21.2 9 Noroeste 17 Noroeste 0 933.5 0.9 53
2018-06-27 01:00:00 22.2 7 Oeste 16 Oeste 0 933.6 1.6 55
2018-06-27 00:00:00 23.3 10 Oeste 22 Oeste 0 933.3 1.9 56
2018-06-26 23:00:00 24.2 12 Sudoeste 20 Sudoeste 0 932.6 1.3 52
2018-06-26 22:00:00 25.7 9 Sudoeste 23 Sudoeste 0 932 0.8 43
2018-06-26 21:00:00 28.8 13 Sudoeste 26 Sudoeste 0 931.4 0 34
2018-06-26 20:00:00 30.9 10 Sudoeste 24 Sudoeste 0 931.3 -0.5 28
2018-06-26 19:00:00 31.8 12 Sudoeste 29 Sudoeste 0 931.2 -0.8 27
2018-06-26 18:00:00 32.9 9 Sudoeste 32 Sudoeste 0 931.4 -0.9 24
2018-06-26 17:00:00 32.5 14 Sudoeste 30 Sudoeste 0 931.8 -0.9 27
2018-06-26 16:00:00 32.2 10 Sur 31 Sudoeste 0 932 -1.1 28
2018-06-26 15:00:00 31.4 8 Oeste 27 Sudoeste 0 932.3 -0.9 33
2018-06-26 14:00:00 30.4 8 Sudoeste 21 Oeste 0 932.7 -0.7 37
2018-06-26 13:00:00 28.6 6 Sudoeste 15 Sur 0 933.1 -0.4 45
2018-06-26 12:00:00 26.3 6 Este 16 Nordeste 0 933.2 0 50
2018-06-26 11:00:00 23.2 5 Oeste 12 Sur 0 933.4 0.5 62
2018-06-26 10:00:00 20.6 6 Sur 13 Sudeste 0 933.5 1 75
2018-06-26 09:00:00 17.6 8 Sur 13 Sudoeste 0 933.2 0.9 88
2018-06-26 08:00:00 16.8 5 Sur 11 Sur 0 932.9 0.5 88
2018-06-26 07:00:00 17.1 4 Sur 7 Sur 0 932.5 0 84
2018-06-26 06:00:00 17.3 5 Sur 8 Sur 0 932.3 -0.3 83
2018-06-26 05:00:00 18.1 5 Sur 11 Sur 0 932.4 -0.4 78
2018-06-26 04:00:00 19.1 7 Sur 11 Sudoeste 0 932.5 -0.3 75
2018-06-26 03:00:00 19.7 6 Sur 11 Sur 0 932.6 0 73
2018-06-26 02:00:00 20.4 7 Sur 14 Sur 0 932.8 0.7 70
2018-06-26 01:00:00 21.2 7 Sur 12 Sur 0 932.8 1.4 66
2018-06-26 00:00:00 22.6 7 Sur 13 Sur 0 932.6 1.7 60
2018-06-25 23:00:00 24.8 6 Sudoeste 18 Sudoeste 0 932.1 1.6 51
2018-06-25 22:00:00 27.2 11 Sudoeste 25 Sudoeste 0 931.4 1 43
2018-06-25 21:00:00 30 15 Sudoeste 27 Sudoeste 0 930.9 0.1 36
2018-06-25 20:00:00 32.3 13 Sudoeste 29 Sudoeste 0 930.5 -0.6 32
2018-06-25 19:00:00 33.2 12 Sudoeste 23 Sur 0 930.4 -0.9 32
2018-06-25 18:00:00 33.6 11 Sudoeste 24 Sudoeste 0 930.8 -0.7 31
2018-06-25 17:00:00 33.6 10 Sudoeste 21 Sudoeste 0 931.1 -0.7 32
2018-06-25 16:00:00 32.3 9 Sur 22 Sur 0 931.3 -0.7 36
2018-06-25 15:00:00 32.1 6 Noroeste 23 Oeste 0 931.5 -0.7 31
2018-06-25 14:00:00 31.1 6 Sudoeste 15 Noroeste 0 931.8 -0.6 35
2018-06-25 13:00:00 28 8 Noroeste 16 Sudoeste 0 932 -0.3 43
2018-06-25 12:00:00 27.3 4 Oeste 13 Oeste 0 932.2 0.1 46
2018-06-25 11:00:00 24.7 5 Noroeste 12 Oeste 0 932.4 0.4 55
2018-06-25 10:00:00 22.7 3 Sudoeste 9 Sudoeste 0 932.3 0.6 64
2018-06-25 09:00:00 19.3 4 Sur 10 Sudoeste 0 932.1 0.5 81
2018-06-25 08:00:00 17.1 6 Sur 13 Sur 0 932 0.7 90
2018-06-25 07:00:00 16.7 8 Sur 15 Sur 0 931.7 0.4 89
2018-06-25 06:00:00 17.1 9 Sur 17 Sur 0 931.6 0.6 88
2018-06-25 05:00:00 17.7 9 Sur 22 Sur 0 931.3 0.2 85
2018-06-25 04:00:00 18.6 12 Sur 22 Sur 0 931.3 0.3 80
2018-06-25 03:00:00 20.2 9 Sur 19 Sudeste 0 931 0.5 73
2018-06-25 02:00:00 21.9 10 Sur 19 Sur 0 931.1 1.1 63
2018-06-25 01:00:00 23.7 9 Sur 15 Sur 0 931 1.6 43
2018-06-25 00:00:00 25.7 6 Sudoeste 13 Sudoeste 0 930.5 1.3 35
2018-06-24 23:00:00 27.7 9 Oeste 16 Oeste 0 930 0.9 30
2018-06-24 22:00:00 29.3 8 Sudoeste 15 Sudoeste 0 929.4 0.2 27
2018-06-24 21:00:00 32.9 8 Sudoeste 17 Sudoeste 0 929.2 -0.3 21
2018-06-24 20:00:00 35.8 4 Sur 22 Sudoeste 0 929.1 -0.8 15
2018-06-24 19:00:00 36.6 9 Sur 22 Sudoeste 0 929.2 -1.1 14
2018-06-24 18:00:00 36.9 7 Sur 26 Sur 0 929.5 -1.2 14
2018-06-24 17:00:00 37.3 9 Sur 26 Oeste 0 929.9 -1.2 14
2018-06-24 16:00:00 36.8 9 Sudeste 20 Sudeste 0 930.3 -1.2 12
2018-06-24 15:00:00 36.2 7 Sur 21 Este 0 930.7 -0.9 16
2018-06-24 14:00:00 34.9 6 Norte 19 Nordeste 0 931.1 -0.6 18
2018-06-24 13:00:00 34.2 8 Sudeste 19 Nordeste 0 931.5 -0.2 18
2018-06-24 12:00:00 32.5 7 Este 17 Este 0 931.6 0.2 20
2018-06-24 11:00:00 30.6 4 Este 11 Este 0 931.7 0.2 23
2018-06-24 10:00:00 26.9 3 Oeste 13 Nordeste 0 931.7 0.3 31
2018-06-24 09:00:00 23.1 9 Nordeste 14 Nordeste 0 931.4 0.2 41
2018-06-24 08:00:00 19.7 8 Este 12 Este 0 931.5 0.4 48
2018-06-24 07:00:00 19.1 5 Sudeste 11 Este 0 931.4 0.3 47
2018-06-24 06:00:00 19.6 8 Este 15 Sur 0 931.2 -0.1 47
2018-06-24 05:00:00 20.6 10 Sur 18 Sur 0 931.1 -0.3 42
2018-06-24 04:00:00 21.3 10 Sur 18 Sur 0 931.1 -0.4 38
2018-06-24 03:00:00 21.7 9 Sur 13 Sudoeste 0 931.3 0.2 34
2018-06-24 02:00:00 22.3 7 Sur 13 Sur 0 931.4 0.9 33
2018-06-24 01:00:00 23.4 6 Sur 11 Sudoeste 0 931.5 1.3 33
2018-06-24 00:00:00 25.1 6 Oeste 16 Sudoeste 0 931.1 1.3 35
2018-06-23 23:00:00 27.2 10 Sudoeste 20 Sudoeste 0 930.5 1 30
2018-06-23 22:00:00 28.9 9 Sudoeste 18 Sudoeste 0 930.2 0.6 28
2018-06-23 21:00:00 31.8 7 Sudoeste 21 Sudoeste 0 929.8 -0.2 20
2018-06-23 20:00:00 35.1 6 Sur 18 Sudoeste 0 929.5 -1 15
2018-06-23 19:00:00 35.8 7 Sur 20 Sur 0 929.6 -1.4 13
2018-06-23 18:00:00 35.7 7 Sur 21 Este 0 930 -1.5 14
2018-06-23 17:00:00 35.6 8 Sudoeste 24 Sur 0 930.5 -1.5 14
2018-06-23 16:00:00 35.2 10 Sur 24 Sudoeste 0 931 -1.3 13
2018-06-23 15:00:00 33.9 8 Sudeste 22 Sudeste 0 931.5 -1 18
2018-06-23 14:00:00 32.8 8 Sudeste 24 Sur 0 932 -0.5 19
2018-06-23 13:00:00 32.2 10 Sur 20 Sur 0 932.3 -0.4 21
2018-06-23 12:00:00 29.8 5 Sur 18 Este 0 932.5 0 26
2018-06-23 11:00:00 27.7 9 Este 16 Nordeste 0 932.5 0 34
2018-06-23 10:00:00 25.2 7 Nordeste 14 Norte 0 932.7 0.3 47
2018-06-23 09:00:00 21.8 7 Norte 15 Norte 0 932.5 0.5 57
2018-06-23 08:00:00 18.4 6 Nordeste 10 Nordeste 0 932.5 0.4 70
2018-06-23 07:00:00 16.7 7 Nordeste 10 Oeste 0 932.4 0.2 75
2018-06-23 06:00:00 17.8 5 Sur 14 Sur 0 932 -0.3 71
2018-06-23 05:00:00 18.4 9 Sur 17 Sur 0 932.1 0 70
2018-06-23 04:00:00 18.9 9 Sudeste 17 Sur 0 932.2 0.1 67
2018-06-23 03:00:00 20 9 Sur 19 Sudeste 0 932.3 0.7 62
2018-06-23 02:00:00 21.2 6 Sur 13 Sur 0 932.1 0.9 48
2018-06-23 01:00:00 22.1 4 Este 18 Sur 0 932.1 1.6 46
2018-06-23 00:00:00 23.4 8 Sur 15 Sudoeste 0 931.6 1.3 42
2018-06-22 23:00:00 25.3 9 Sudoeste 15 Sudoeste 0 931.2 1.1 37
2018-06-22 22:00:00 27.9 7 Sudoeste 11 Sudoeste 0 930.5 0.1 31
2018-06-22 21:00:00 31.9 4 Sudoeste 9 Sudeste 0 930.3 -0.4 24
2018-06-22 20:00:00 32.5 4 Sudeste 14 Este 0 930.1 -0.9 20
2018-06-22 19:00:00 32.9 4 Sur 23 Sur 0 930.4 -1 21
2018-06-22 18:00:00 32.8 8 Sudeste 28 Este 0 930.7 -1.2 20
2018-06-22 17:00:00 32.5 10 Sudeste 29 Este 0 931 -1.4 22
2018-06-22 16:00:00 31.9 9 Sudeste 25 Sudeste 0 931.4 -1.6 24
2018-06-22 15:00:00 31 9 Este 28 Sudeste 0 931.9 -1.2 25
2018-06-22 14:00:00 30.5 8 Sudeste 24 Sudeste 0 932.4 -0.8 27
2018-06-22 13:00:00 29.2 9 Sudeste 19 Nordeste 0 933 -0.5 32
2018-06-22 12:00:00 27 6 Nordeste 18 Nordeste 0 933.1 -0.2 38
2018-06-22 11:00:00 24.1 8 Norte 17 Norte 0 933.2 0.4 52
2018-06-22 10:00:00 21.6 8 Noroeste 14 Noroeste 0 933.5 0.7 62
2018-06-22 09:00:00 20.4 5 Norte 10 Nordeste 0 933.3 0.9 66
2018-06-22 08:00:00 17.6 4 Este 10 Sudeste 0 932.8 0.6 75
2018-06-22 07:00:00 16.1 6 Sur 13 Sudeste 0 932.8 0.4 77
2018-06-22 06:00:00 16.6 7 Este 12 Sudeste 0 932.4 -0.1 76
2018-06-22 05:00:00 17.3 8 Sur 21 Sur 0 932.2 -0.2 73
2018-06-22 04:00:00 18 10 Sur 24 Sur 0 932.4 0.1 70
2018-06-22 03:00:00 19.3 11 Sur 24 Sudeste 0 932.5 0.7 65
2018-06-22 02:00:00 20.6 11 Sur 22 Sudeste 0 932.4 0.9 59
2018-06-22 01:00:00 22 9 Sur 17 Sur 0 932.3 1.2 47
2018-06-22 00:00:00 24.3 10 Oeste 16 Oeste 0 931.8 0.9 40
2018-06-21 23:00:00 25 8 Sudoeste 10 Sudoeste 0 931.5 0.9 33
2018-06-21 22:00:00 28 5 Sur 8 Sur 0 931.1 0.6 27
2018-06-21 21:00:00 30.6 5 Sur 18 Sur 0 930.9 -0.1 23
2018-06-21 20:00:00 31.4 4 Este 28 Sudeste 0 930.6 -0.6 18
2018-06-21 19:00:00 31.8 5 Sudeste 23 Este 0 930.5 -1.2 21
2018-06-21 18:00:00 30.6 6 Este 21 Este 0 931 -1 26
2018-06-21 17:00:00 31.6 7 Este 19 Este 0 931.2 -1.3 26
2018-06-21 16:00:00 30.2 11 Nordeste 24 Este 0 931.7 -1 28
2018-06-21 15:00:00 29.6 9 Nordeste 19 Nordeste 0 932 -1.1 29
2018-06-21 14:00:00 29.5 6 Este 26 Nordeste 0 932.5 -0.8 29
2018-06-21 13:00:00 28 10 Nordeste 24 Norte 0 932.7 -0.7 32
2018-06-21 12:00:00 26.5 7 Nordeste 19 Norte 0 933.1 -0.2 35
2018-06-21 11:00:00 24.5 5 Sudoeste 17 Noroeste 0 933.3 0.4 44
2018-06-21 10:00:00 22.2 4 Sur 13 Sudeste 0 933.4 1.4 52
2018-06-21 09:00:00 20 4 Sudeste 19 Sur 0 933.3 1.5 65
2018-06-21 08:00:00 17.8 12 Sur 22 Sur 0 932.9 1.1 72
2018-06-21 07:00:00 17 8 Sur 14 Sur 0 932 0.1 74
2018-06-21 06:00:00 17.3 10 Sur 17 Sur 0 931.8 -0.1 74
2018-06-21 05:00:00 17.8 10 Sur 21 Sur 0 931.8 0.2 74
2018-06-21 04:00:00 18.8 11 Sur 22 Sur 0 931.9 -0.2 66
2018-06-21 03:00:00 20.3 12 Sur 20 Sur 0 931.9 -0.2 50
2018-06-21 02:00:00 22.3 7 Oeste 19 Noroeste 0 931.6 0.1 46
2018-06-21 01:00:00 23 11 Noroeste 23 Oeste 0 932.1 1.1 44
2018-06-21 00:00:00 24.3 13 Oeste 20 Oeste 0 932.1 1.3 37
2018-06-20 23:00:00 25.4 12 Sudoeste 21 Oeste 0 931.5 0.8 34
2018-06-20 22:00:00 26.5 9 Sudoeste 18 Sudoeste 0 931 0.5 34
2018-06-20 21:00:00 29.5 9 Sur 17 Sur 0 930.8 -0.1 30
2018-06-20 20:00:00 30.9 6 Sur 20 Sur 0 930.7 -0.6 27
2018-06-20 19:00:00 32.2 4 Nordeste 12 Nordeste 0 930.5 -1.2 23
2018-06-20 18:00:00 32.5 6 Este 20 Nordeste 0 930.9 -1.4 22
2018-06-20 17:00:00 32.2 3 Noroeste 33 Norte 0 931.3 -1.6 24
2018-06-20 16:00:00 31.7 5 Sudeste 24 Sudeste 0 931.7 -1.6 25
2018-06-20 15:00:00 31 8 Este 22 Este 0 932.3 -1.5 27
2018-06-20 14:00:00 30.1 7 Norte 19 Sudeste 0 932.9 -1 30
2018-06-20 13:00:00 29.3 8 Sudeste 18 Este 0 933.3 -0.6 32
2018-06-20 12:00:00 27.9 5 Sudoeste 15 Sur 0 933.8 0.2 34
2018-06-20 11:00:00 25.8 5 Sudoeste 16 Sudoeste 0 933.9 0.5 40
2018-06-20 10:00:00 23.2 6 Sudoeste 15 Sur 0 933.9 0.9 47
2018-06-20 09:00:00 20 8 Sudoeste 12 Sudoeste 0 933.6 0.9 57
2018-06-20 08:00:00 17.8 7 Sur 13 Sur 0 933.4 0.8 63
2018-06-20 07:00:00 16.6 8 Sur 17 Sur 0 933 0.2 64
2018-06-20 06:00:00 17.4 9 Sur 18 Sur 0 932.7 -0.2 58
2018-06-20 05:00:00 18.3 8 Sur 17 Sur 0 932.6 -0.4 52
2018-06-20 04:00:00 18.6 8 Sur 17 Sur 0 932.8 -0.2 50
2018-06-20 03:00:00 18.9 10 Sur 17 Sur 0 932.9 -0.1 50
2018-06-20 02:00:00 19.9 10 Sur 20 Sur 0 933 0.3 47
2018-06-20 01:00:00 20.8 10 Sur 18 Sur 0 933 0.7 44
2018-06-20 00:00:00 22.1 9 Sur 17 Sudoeste 0 933 0.6 41
2018-06-19 23:00:00 23.6 10 Sudoeste 20 Sudoeste 0 932.7 0.3 36
2018-06-19 22:00:00 25.9 11 Sudoeste 19 Sudoeste 0 932.3 -0.1 32
2018-06-19 21:00:00 30 9 Sudoeste 20 Sudoeste 0 932.4 -0.4 26
2018-06-19 20:00:00 30.4 4 Nordeste 18 Sudeste 0 932.4 -0.8 24
2018-06-19 19:00:00 32.1 6 Sudoeste 19 Sudoeste 0 932.4 -1.1 22
2018-06-19 18:00:00 31.8 4 Oeste 21 Sudoeste 0 932.8 -1.1 23
2018-06-19 17:00:00 31.4 11 Sur 26 Sur 0 933.2 -1.2 24
2018-06-19 16:00:00 30.7 11 Sur 26 Sudoeste 0 933.5 -1.2 26
2018-06-19 15:00:00 30.5 9 Sur 29 Sudoeste 0 933.9 -1.1 26
2018-06-19 14:00:00 29.6 13 Sudoeste 25 Sudoeste 0 934.4 -0.6 27
2018-06-19 13:00:00 28.5 13 Sur 23 Sur 0 934.7 -0.3 29
2018-06-19 12:00:00 26.9 9 Sur 24 Sur 0 935 0.1 32
2018-06-19 11:00:00 25.3 12 Sur 26 Sudoeste 0 935 0.4 36
2018-06-19 10:00:00 23.3 11 Sur 22 Sur 0 935 0.9 42
2018-06-19 09:00:00 20.3 9 Sur 23 Sur 0 934.9 1.2 51
2018-06-19 08:00:00 18.3 9 Sur 24 Sudeste 0 934.6 1.3 58
2018-06-19 07:00:00 17.1 12 Sur 23 Sur 0 934.1 0.8 66
2018-06-19 06:00:00 17.4 12 Sur 22 Sur 0 933.7 0.2 68
2018-06-19 05:00:00 18 12 Sur 27 Sur 0 933.3 -0.3 69
2018-06-19 04:00:00 18.8 11 Sur 17 Sur 0 933.3 -0.5 63
2018-06-19 03:00:00 20.4 10 Sudeste 16 Sudeste 0 933.5 -0.2 52
2018-06-19 02:00:00 24.1 7 Sudeste 14 Sudeste 0 933.6 0 28
2018-06-19 01:00:00 22 6 Sudeste 13 Sudeste 0 933.8 0.6 32
2018-06-19 00:00:00 23.3 6 Nordeste 10 Nordeste 0 933.7 0.8 30
2018-06-18 23:00:00 23.7 7 Nordeste 10 Nordeste 0 933.6 0.8 30
2018-06-18 22:00:00 25.8 6 Nordeste 17 Nordeste 0 933.2 0.4 28
2018-06-18 21:00:00 29.7 9 Nordeste 20 Nordeste 0 932.9 -0.3 23
2018-06-18 20:00:00 30.1 8 Nordeste 28 Nordeste 0 932.8 -0.8 22
2018-06-18 19:00:00 32.5 6 Nordeste 22 Nordeste 0 932.8 -1.2 15
2018-06-18 18:00:00 32.7 5 Norte 29 Nordeste 0 933.2 -1.2 15
2018-06-18 17:00:00 32.6 8 Nordeste 25 Nordeste 0 933.6 -1.2 17
2018-06-18 16:00:00 32.3 13 Nordeste 28 Este 0 934 -1 17
2018-06-18 15:00:00 31.9 14 Nordeste 31 Nordeste 0 934.4 -0.9 19
2018-06-18 14:00:00 31.8 9 Este 29 Norte 0 934.8 -0.5 20
2018-06-18 13:00:00 31 8 Este 24 Este 0 935 -0.3 22
2018-06-18 12:00:00 30.6 6 Este 21 Nordeste 0 935.3 0.2 25
2018-06-18 11:00:00 28.8 5 Nordeste 16 Nordeste 0 935.3 0.4 28
2018-06-18 10:00:00 24.4 4 Norte 11 Nordeste 0 935.3 0.6 44
2018-06-18 09:00:00 22.5 6 Nordeste 16 Este 0 935.1 0.6 44
2018-06-18 08:00:00 23.1 7 Este 21 Este 0 934.9 0.5 35
2018-06-18 07:00:00 22.2 9 Este 19 Este 0 934.7 0.2 34
2018-06-18 06:00:00 20.5 9 Sur 16 Este 0 934.5 -0.3 40
2018-06-18 05:00:00 22 11 Nordeste 20 Nordeste 0 934.4 -0.5 35
2018-06-18 04:00:00 22 10 Este 17 Este 0 934.5 -0.8 35
2018-06-18 03:00:00 22.3 10 Este 16 Nordeste 0 934.8 -0.3 36
2018-06-18 02:00:00 22.4 8 Nordeste 15 Norte 0 934.9 0.1 43
2018-06-18 01:00:00 23.4 8 Norte 15 Norte 0 935.3 1 46
2018-06-18 00:00:00 25.4 8 Oeste 14 Sudoeste 0 935.1 1.1 39
2018-06-17 23:00:00 26.4 8 Oeste 13 Sudoeste 0 934.8 1.2 37
2018-06-17 22:00:00 28.3 6 Sudoeste 10 Sudoeste 0 934.3 0.7 31
2018-06-17 21:00:00 31 4 Este 14 Nordeste 0 934 0.4 27
2018-06-17 20:00:00 31.7 9 Nordeste 18 Nordeste 0 933.6 -0.1 24
2018-06-17 19:00:00 32.7 3 Norte 12 Norte 0 933.6 -0.3 22
2018-06-17 18:00:00 31.8 6 Nordeste 21 Nordeste 0 933.6 -0.5 25
2018-06-17 17:00:00 33.3 7 Noroeste 22 Norte 0 933.7 -0.6 24
2018-06-17 16:00:00 32.8 8 Sudeste 21 Noroeste 0 933.9 -0.5 25
2018-06-17 15:00:00 30.1 8 Nordeste 23 Norte 0 934.1 -0.1 28
2018-06-17 14:00:00 30.4 6 Este 14 Sudeste 0 934.3 0.3 29
2018-06-17 13:00:00 29.9 5 Sudeste 19 Sudeste 0 934.4 0.6 32
2018-06-17 12:00:00 28.5 6 Sur 19 Sur 0 934.2 1 33
2018-06-17 11:00:00 26.2 7 Sur 17 Sur 0 934 1.3 36
2018-06-17 10:00:00 23.9 7 Sur 18 Sur 0 933.8 1.6 43
2018-06-17 09:00:00 20.7 10 Sur 18 Sur 0 933.2 1.3 50
2018-06-17 08:00:00 18.9 10 Sur 20 Sur 0 932.7 1 59
2018-06-17 07:00:00 17.7 12 Sur 20 Sur 0 932.2 0.6 67
2018-06-17 06:00:00 17.7 9 Sur 17 Sudeste 0 931.9 0.6 67
2018-06-17 05:00:00 18.6 8 Sur 13 Sur 0 931.7 0.3 63
2018-06-17 04:00:00 20.8 9 Sudeste 14 Sudeste 0 931.6 0.4 53
2018-06-17 03:00:00 22.9 6 Este 10 Este 0 931.3 0.4 45
2018-06-17 02:00:00 21.1 7 Este 13 Nordeste 0 931.4 0.7 53
2018-06-17 01:00:00 22.8 7 Sudoeste 13 Sudoeste 0 931.2 1.1 47
2018-06-17 00:00:00 23.3 9 Sudoeste 13 Sur 0 930.9 1.2 44